aviador You're here:

KMQY Decoded Metar

SMYRNA in TN, USA
Report Time2017-06-27 04:56:00
UTC Time2017-06-27 05:18:11
Flight Rules vfr VFR
WindCalm
Visibility9999 m
Phenomena:N/A
Clouds:N/A
Expected CloudBase > 2,800 ft AGL from Temp-Dew spread
CeilingNone
Temp20°C (ISA +6)
Dew Point13°C (64% RH)
QNH1020 hPa
Density Alt1,224 ft
Elevation545 ft
Report Wrong Elevation
Raw Report
KMQY 270456Z AUTO 00000KT 10SM CLR 20/13 A3012 RMK AO2 RAB08E20
SLP104 P0000 T02000133=

Extra information for KMQY:More info

Metar Taf Metar & Taf Last 4 Metars F.Rules Stats Wind Profile Meteogram Temp Stats Airport Information Weather charts Add Link Nearby VenuesMetar ALERT Operation Metar Decoded Social comments

AIRNAV info for KMQY